createdAt,value
2022-09-07T00:01:33.869Z,14.39
2022-09-07T00:04:40.006Z,14.37
2022-09-07T00:07:48.235Z,14.34
2022-09-07T00:10:57.057Z,14.29
2022-09-07T00:14:07.914Z,14.24
2022-09-07T00:17:13.722Z,14.17
2022-09-07T00:20:20.654Z,14.09
2022-09-07T00:23:26.574Z,14.07
2022-09-07T00:26:35.472Z,14.06
2022-09-07T00:29:44.382Z,14.02
2022-09-07T00:32:51.298Z,14.01
2022-09-07T00:35:57.482Z,14.01
2022-09-07T00:39:04.199Z,13.95
2022-09-07T00:42:11.301Z,13.88
2022-09-07T00:45:22.264Z,13.88
2022-09-07T00:48:33.168Z,13.84
2022-09-07T00:51:45.776Z,13.77
2022-09-07T00:54:57.297Z,13.68
2022-09-07T00:58:04.272Z,13.56
2022-09-07T01:01:13.593Z,13.52
2022-09-07T01:04:20.314Z,13.42
2022-09-07T01:07:27.025Z,13.33
2022-09-07T01:10:34.725Z,13.31
2022-09-07T01:13:42.387Z,13.28
2022-09-07T01:17:03.497Z,13.23
2022-09-07T01:20:42.718Z,13.27
2022-09-07T01:24:37.058Z,13.27
2022-09-07T01:28:13.940Z,13.26
2022-09-07T01:31:28.993Z,13.20
2022-09-07T01:34:35.746Z,13.17
2022-09-07T01:37:48.354Z,13.16
2022-09-07T01:41:04.020Z,13.15
2022-09-07T01:44:18.712Z,13.11
2022-09-07T01:47:30.687Z,13.12
2022-09-07T01:50:45.071Z,13.09
2022-09-07T01:53:56.911Z,13.02
2022-09-07T01:57:08.776Z,12.92
2022-09-07T02:00:23.007Z,12.86
2022-09-07T02:03:36.312Z,12.81
2022-09-07T02:06:49.766Z,12.79
2022-09-07T02:10:00.712Z,12.73
2022-09-07T02:13:13.370Z,12.62
2022-09-07T02:16:27.788Z,12.54
2022-09-07T02:19:39.983Z,12.50
2022-09-07T02:22:50.715Z,12.44
2022-09-07T02:26:03.820Z,12.39
2022-09-07T02:29:11.506Z,12.31
2022-09-07T02:32:20.584Z,12.26
2022-09-07T02:35:27.890Z,12.15
2022-09-07T02:38:34.526Z,12.07
2022-09-07T02:41:43.312Z,12.01
2022-09-07T02:44:50.161Z,12.00
2022-09-07T02:48:16.713Z,12.00
2022-09-07T02:51:33.743Z,11.99
2022-09-07T02:54:56.054Z,12.02
2022-09-07T02:58:16.914Z,12.05
2022-09-07T03:01:38.454Z,12.06
2022-09-07T03:04:53.968Z,12.05
2022-09-07T03:08:08.509Z,12.06
2022-09-07T03:11:16.114Z,12.04
2022-09-07T03:14:24.799Z,12.05
2022-09-07T03:17:31.217Z,12.00
2022-09-07T03:20:40.976Z,12.00
2022-09-07T03:23:51.162Z,11.97
2022-09-07T03:26:58.853Z,11.93
2022-09-07T03:30:06.853Z,11.88
2022-09-07T03:33:16.148Z,11.80
2022-09-07T03:36:25.375Z,11.74
2022-09-07T03:39:32.366Z,11.62
2022-09-07T03:42:38.833Z,11.59
2022-09-07T03:45:46.006Z,11.51
2022-09-07T03:48:54.157Z,11.49
2022-09-07T03:52:04.075Z,11.44
2022-09-07T03:55:11.000Z,11.39
2022-09-07T03:58:18.001Z,11.39
2022-09-07T04:01:26.345Z,11.36
2022-09-07T04:04:33.867Z,11.37
2022-09-07T04:07:42.879Z,11.35
2022-09-07T04:10:49.762Z,11.34
2022-09-07T04:13:55.701Z,11.34
2022-09-07T04:17:03.764Z,11.37
2022-09-07T04:20:11.211Z,11.39
2022-09-07T04:23:21.596Z,11.41
2022-09-07T04:26:31.082Z,11.44
2022-09-07T04:29:38.588Z,11.48
2022-09-07T04:32:44.669Z,11.52
2022-09-07T04:35:51.731Z,11.54
2022-09-07T04:39:03.584Z,11.60
2022-09-07T04:42:11.116Z,11.64
2022-09-07T04:45:17.186Z,11.70
2022-09-07T04:48:24.433Z,11.72
2022-09-07T04:51:32.367Z,11.74
2022-09-07T04:54:42.860Z,11.74
2022-09-07T04:57:52.142Z,11.75
2022-09-07T05:00:59.171Z,11.78
2022-09-07T05:04:08.155Z,11.79
2022-09-07T05:07:15.034Z,11.79
2022-09-07T05:10:24.504Z,11.83
2022-09-07T05:13:33.184Z,11.86
2022-09-07T05:16:39.514Z,11.92
2022-09-07T05:19:47.033Z,11.98
2022-09-07T05:22:59.780Z,12.08
2022-09-07T05:26:13.640Z,12.17
2022-09-07T05:32:48.883Z,12.37
2022-09-07T05:36:00.247Z,12.45
2022-09-07T05:39:10.713Z,12.50
2022-09-07T05:42:19.703Z,12.47
2022-09-07T05:45:26.630Z,12.50
2022-09-07T05:48:33.108Z,12.60
2022-09-07T05:51:40.234Z,12.73
2022-09-07T05:54:46.475Z,12.86
2022-09-07T05:57:56.567Z,12.99
2022-09-07T06:01:04.069Z,13.07
2022-09-07T06:04:11.097Z,13.10
2022-09-07T06:07:22.078Z,13.23
2022-09-07T06:10:46.872Z,13.33
2022-09-07T06:13:56.108Z,13.47
2022-09-07T06:17:03.578Z,13.55
2022-09-07T06:20:10.982Z,13.64
2022-09-07T06:23:18.110Z,13.66
2022-09-07T06:26:24.401Z,13.69
2022-09-07T06:29:34.029Z,13.73
2022-09-07T06:35:58.352Z,13.81
2022-09-07T06:39:04.789Z,13.92
2022-09-07T06:42:11.901Z,14.03
2022-09-07T06:45:25.631Z,14.16
2022-09-07T06:48:33.082Z,14.26
2022-09-07T06:51:39.491Z,14.31
2022-09-07T06:55:02.373Z,14.44
2022-09-07T06:58:08.828Z,14.57
2022-09-07T07:01:20.983Z,14.71
2022-09-07T07:04:27.023Z,14.80
2022-09-07T07:07:34.177Z,14.93
2022-09-07T07:10:42.183Z,14.96
2022-09-07T07:13:49.482Z,14.96
2022-09-07T07:16:58.337Z,15.07
2022-09-07T07:20:07.962Z,15.19
2022-09-07T07:23:15.232Z,15.28
2022-09-07T07:26:27.055Z,15.40
2022-09-07T07:29:33.379Z,15.37
2022-09-07T07:32:44.196Z,15.40
2022-09-07T07:35:50.404Z,15.46
2022-09-07T07:42:12.648Z,15.64
2022-09-07T07:48:51.201Z,15.80
2022-09-07T07:58:52.803Z,16.06
2022-09-07T08:02:04.829Z,16.09
2022-09-07T08:05:17.387Z,16.16
2022-09-07T08:08:25.719Z,16.17
2022-09-07T08:11:35.641Z,16.25
2022-09-07T08:14:42.934Z,16.35
2022-09-07T08:17:51.105Z,16.41
2022-09-07T08:21:04.356Z,16.50
2022-09-07T08:24:12.146Z,16.61
2022-09-07T08:27:22.014Z,16.71
2022-09-07T08:30:29.591Z,16.79
2022-09-07T08:33:35.645Z,16.87
2022-09-07T08:36:45.474Z,16.95
2022-09-07T08:39:51.420Z,16.98
2022-09-07T08:43:10.408Z,17.10
2022-09-07T08:46:25.348Z,17.21
2022-09-07T08:49:44.909Z,17.30
2022-09-07T08:52:58.667Z,17.42
2022-09-07T08:56:10.500Z,17.55
2022-09-07T08:59:24.776Z,17.65
2022-09-07T09:02:36.551Z,17.73
2022-09-07T09:05:51.534Z,17.85
2022-09-07T09:09:20.331Z,18.00
2022-09-07T09:12:37.699Z,18.10
2022-09-07T09:15:54.666Z,18.24
2022-09-07T09:19:16.373Z,18.36
2022-09-07T09:22:26.821Z,18.45
2022-09-07T09:25:39.811Z,18.62
2022-09-07T09:28:46.693Z,18.73
2022-09-07T09:31:53.822Z,18.79
2022-09-07T09:35:06.864Z,18.87
2022-09-07T09:38:35.093Z,19.01
2022-09-07T09:41:45.623Z,19.11
2022-09-07T09:44:51.826Z,19.29
2022-09-07T09:48:01.055Z,19.47
2022-09-07T09:54:43.950Z,19.56
2022-09-07T10:01:28.362Z,19.75
2022-09-07T10:04:37.179Z,19.81
2022-09-07T10:07:55.233Z,19.89
2022-09-07T10:11:03.751Z,19.89
2022-09-07T10:14:21.640Z,19.91
2022-09-07T10:17:32.985Z,19.93
2022-09-07T10:20:41.697Z,19.98
2022-09-07T10:23:48.153Z,20.08
2022-09-07T10:26:55.593Z,20.16
2022-09-07T10:30:07.171Z,20.30
2022-09-07T10:33:22.090Z,20.53
2022-09-07T10:36:39.222Z,20.64
2022-09-07T10:39:51.434Z,20.64
2022-09-07T10:47:01.654Z,20.71
2022-09-07T10:50:29.456Z,20.78
2022-09-07T10:54:30.143Z,20.82
2022-09-07T10:57:32.504Z,20.86
2022-09-07T11:00:50.867Z,20.98
2022-09-07T11:04:27.668Z,21.24
2022-09-07T11:07:55.477Z,21.29
2022-09-07T11:11:08.789Z,21.25
2022-09-07T11:14:19.507Z,21.42
2022-09-07T11:17:29.590Z,21.70
2022-09-07T11:20:42.664Z,21.96
2022-09-07T11:23:55.579Z,22.16
2022-09-07T11:27:11.130Z,22.33
2022-09-07T11:30:23.033Z,22.33
2022-09-07T11:33:36.808Z,22.21
2022-09-07T11:36:52.576Z,22.08
2022-09-07T11:40:07.246Z,21.97
2022-09-07T11:43:23.247Z,21.90
2022-09-07T11:46:37.810Z,21.81
2022-09-07T11:49:50.794Z,21.76
2022-09-07T11:53:07.104Z,21.74
2022-09-07T11:56:18.721Z,21.73
2022-09-07T11:59:37.539Z,21.72
2022-09-07T12:03:10.585Z,21.74
2022-09-07T12:06:55.017Z,21.74
2022-09-07T12:10:30.558Z,21.75
2022-09-07T12:14:11.718Z,21.79
2022-09-07T12:17:39.698Z,21.80
2022-09-07T12:20:47.491Z,21.85
2022-09-07T12:23:54.636Z,21.89
2022-09-07T12:27:06.688Z,22.00
2022-09-07T12:30:55.884Z,22.08
2022-09-07T12:34:43.808Z,22.11
2022-09-07T12:37:50.811Z,22.13
2022-09-07T12:41:03.748Z,22.20
2022-09-07T12:44:19.283Z,22.30
2022-09-07T12:47:33.801Z,22.36
2022-09-07T12:50:46.523Z,22.44
2022-09-07T12:54:08.863Z,22.50
2022-09-07T12:57:32.546Z,22.54
2022-09-07T13:00:59.123Z,22.58
2022-09-07T13:04:43.139Z,22.66
2022-09-07T13:08:18.074Z,22.75
2022-09-07T13:11:37.633Z,22.82
2022-09-07T13:14:44.163Z,22.85
2022-09-07T13:18:00.890Z,22.88
2022-09-07T13:21:36.911Z,22.93
2022-09-07T13:24:55.953Z,22.92
2022-09-07T13:28:09.342Z,22.96
2022-09-07T13:31:31.891Z,23.03
2022-09-07T13:35:06.946Z,23.05
2022-09-07T13:38:17.997Z,23.01
2022-09-07T13:41:27.850Z,23.07
2022-09-07T13:44:37.365Z,23.13
2022-09-07T13:47:53.526Z,23.20
2022-09-07T13:51:10.602Z,23.28
2022-09-07T13:54:27.673Z,23.34
2022-09-07T13:57:42.473Z,23.36
2022-09-07T14:00:58.899Z,23.44
2022-09-07T14:04:09.669Z,23.44
2022-09-07T14:07:22.802Z,23.52
2022-09-07T14:10:30.265Z,23.58
2022-09-07T14:13:36.258Z,23.63
2022-09-07T14:16:44.742Z,23.70
2022-09-07T14:19:52.953Z,23.75
2022-09-07T14:23:03.647Z,23.76
2022-09-07T14:26:18.686Z,23.78
2022-09-07T14:29:27.673Z,23.79
2022-09-07T14:32:33.699Z,23.71
2022-09-07T14:35:42.373Z,23.69
2022-09-07T14:39:08.257Z,23.75
2022-09-07T14:42:16.940Z,23.78
2022-09-07T14:45:34.301Z,23.80
2022-09-07T14:48:42.349Z,23.79
2022-09-07T14:51:49.701Z,23.83
2022-09-07T14:54:59.803Z,23.92
2022-09-07T14:58:27.319Z,24.02
2022-09-07T15:01:37.282Z,24.00
2022-09-07T15:04:43.552Z,24.00
2022-09-07T15:07:51.869Z,24.04
2022-09-07T15:14:36.312Z,24.10
2022-09-07T15:17:43.678Z,24.17
2022-09-07T15:20:50.910Z,24.21
2022-09-07T15:23:58.766Z,24.17
2022-09-07T15:27:21.774Z,24.21
2022-09-07T15:30:27.819Z,24.19
2022-09-07T15:33:34.799Z,24.19
2022-09-07T15:36:42.894Z,24.19
2022-09-07T15:39:49.616Z,24.19
2022-09-07T15:43:00.350Z,24.17
2022-09-07T15:46:09.262Z,24.15
2022-09-07T15:49:15.855Z,24.16
2022-09-07T15:52:22.648Z,24.20
2022-09-07T15:55:28.487Z,24.26
2022-09-07T15:58:38.449Z,24.36
2022-09-07T16:01:52.050Z,24.55
2022-09-07T16:04:59.371Z,24.96
2022-09-07T16:11:35.247Z,25.45
2022-09-07T16:14:44.155Z,25.45
2022-09-07T16:17:53.832Z,25.33
2022-09-07T16:21:00.383Z,25.14
2022-09-07T16:24:09.849Z,24.95
2022-09-07T16:27:16.019Z,24.74
2022-09-07T16:30:26.209Z,24.56
2022-09-07T16:33:36.860Z,24.37
2022-09-07T16:36:44.594Z,24.18
2022-09-07T16:39:51.729Z,23.97
2022-09-07T16:42:58.579Z,23.81
2022-09-07T16:46:11.513Z,23.60
2022-09-07T16:49:19.529Z,23.39
2022-09-07T16:52:26.704Z,23.20
2022-09-07T16:55:34.320Z,23.07
2022-09-07T16:58:42.180Z,22.95
2022-09-07T17:01:51.949Z,22.86
2022-09-07T17:04:58.224Z,22.71
2022-09-07T17:08:07.596Z,22.56
2022-09-07T17:11:16.165Z,22.41
2022-09-07T17:14:23.739Z,22.29
2022-09-07T17:17:33.021Z,22.17
2022-09-07T17:20:40.715Z,22.03
2022-09-07T17:23:54.846Z,21.91
2022-09-07T17:27:04.028Z,21.76
2022-09-07T17:30:11.641Z,21.61
2022-09-07T17:33:21.473Z,21.45
2022-09-07T17:36:28.590Z,21.34
2022-09-07T17:39:35.788Z,21.25
2022-09-07T17:46:10.187Z,20.98
2022-09-07T17:49:19.123Z,20.85
2022-09-07T17:52:28.644Z,20.77
2022-09-07T17:55:35.008Z,20.68
2022-09-07T17:58:43.165Z,20.61
2022-09-07T18:01:49.496Z,20.53
2022-09-07T18:05:00.768Z,20.44
2022-09-07T18:08:09.228Z,20.34
2022-09-07T18:14:44.610Z,20.15
2022-09-07T18:17:51.297Z,20.07
2022-09-07T18:21:00.129Z,20.00
2022-09-07T18:24:11.644Z,19.95
2022-09-07T18:27:21.241Z,19.89
2022-09-07T18:30:29.799Z,19.83
2022-09-07T18:33:35.658Z,19.75
2022-09-07T18:36:45.235Z,19.69
2022-09-07T18:39:52.626Z,19.62
2022-09-07T18:42:59.651Z,19.57
2022-09-07T18:46:11.288Z,19.52
2022-09-07T18:49:18.095Z,19.47
2022-09-07T18:55:53.733Z,19.34
2022-09-07T18:59:00.290Z,19.29
2022-09-07T19:02:12.470Z,19.23
2022-09-07T19:08:50.028Z,19.16
2022-09-07T19:11:56.204Z,19.12
2022-09-07T19:15:04.175Z,19.07
2022-09-07T19:18:11.026Z,19.03
2022-09-07T19:21:19.942Z,18.99
2022-09-07T19:24:28.816Z,18.97
2022-09-07T19:27:36.022Z,18.92
2022-09-07T19:30:42.035Z,18.86
2022-09-07T19:33:48.769Z,18.83
2022-09-07T19:36:55.010Z,18.77
2022-09-07T19:40:07.575Z,18.74
2022-09-07T19:43:13.478Z,18.70
2022-09-07T19:46:24.754Z,18.68
2022-09-07T19:49:31.178Z,18.65
2022-09-07T19:52:38.335Z,18.61
2022-09-07T19:55:47.787Z,18.58
2022-09-07T19:58:54.754Z,18.53
2022-09-07T20:02:00.593Z,18.50
2022-09-07T20:05:09.668Z,18.45
2022-09-07T20:08:15.659Z,18.40
2022-09-07T20:11:26.008Z,18.37
2022-09-07T20:14:31.843Z,18.32
2022-09-07T20:17:38.530Z,18.29
2022-09-07T20:20:44.644Z,18.25
2022-09-07T20:23:52.039Z,18.22
2022-09-07T20:27:03.848Z,18.19
2022-09-07T20:30:11.946Z,18.15
2022-09-07T20:33:18.208Z,18.12
2022-09-07T20:36:25.373Z,18.08
2022-09-07T20:39:34.673Z,18.02
2022-09-07T20:42:48.663Z,17.96
2022-09-07T20:45:59.821Z,17.91
2022-09-07T20:49:11.116Z,17.87
2022-09-07T20:52:17.152Z,17.83
2022-09-07T20:55:24.833Z,17.78
2022-09-07T20:58:34.015Z,17.74
2022-09-07T21:01:41.125Z,17.72
2022-09-07T21:04:46.982Z,17.70
2022-09-07T21:07:54.090Z,17.68
2022-09-07T21:11:00.020Z,17.66
2022-09-07T21:14:15.398Z,17.64
2022-09-07T21:17:21.211Z,17.60
2022-09-07T21:20:27.954Z,17.56
2022-09-07T21:23:35.691Z,17.55
2022-09-07T21:26:42.356Z,17.52
2022-09-07T21:29:51.017Z,17.48
2022-09-07T21:33:02.848Z,17.41
2022-09-07T21:36:11.558Z,17.38
2022-09-07T21:39:19.469Z,17.33
2022-09-07T21:42:25.268Z,17.30
2022-09-07T21:45:35.214Z,17.25
2022-09-07T21:48:41.123Z,17.22
2022-09-07T21:51:47.795Z,17.18
2022-09-07T21:54:53.652Z,17.14
2022-09-07T21:58:01.037Z,17.09
2022-09-07T22:01:17.336Z,17.07
2022-09-07T22:04:24.302Z,17.01
2022-09-07T22:07:30.142Z,16.96
2022-09-07T22:10:37.207Z,16.92
2022-09-07T22:13:44.473Z,16.86
2022-09-07T22:16:53.993Z,16.83
2022-09-07T22:20:00.059Z,16.76
2022-09-07T22:23:09.420Z,16.74
2022-09-07T22:26:16.621Z,16.71
2022-09-07T22:29:23.256Z,16.69
2022-09-07T22:32:31.929Z,16.67
2022-09-07T22:35:38.547Z,16.64
2022-09-07T22:38:44.894Z,16.61
2022-09-07T22:41:51.738Z,16.57
2022-09-07T22:44:57.834Z,16.55
2022-09-07T22:48:07.354Z,16.53
2022-09-07T22:51:14.209Z,16.48
2022-09-07T22:54:20.865Z,16.45
2022-09-07T22:57:26.715Z,16.42
2022-09-07T23:00:33.632Z,16.37
2022-09-07T23:03:42.487Z,16.34
2022-09-07T23:06:49.416Z,16.32
2022-09-07T23:09:55.306Z,16.29
2022-09-07T23:13:03.547Z,16.27
2022-09-07T23:16:10.820Z,16.26
2022-09-07T23:19:22.713Z,16.23
2022-09-07T23:22:28.691Z,16.20
2022-09-07T23:25:38.310Z,16.18
2022-09-07T23:28:44.125Z,16.15
2022-09-07T23:31:51.128Z,16.14
2022-09-07T23:34:59.788Z,16.12
2022-09-07T23:38:09.017Z,16.07
2022-09-07T23:41:15.555Z,16.06
2022-09-07T23:44:22.323Z,16.02
2022-09-07T23:47:28.995Z,15.98
2022-09-07T23:50:39.270Z,15.93
2022-09-07T23:53:45.520Z,15.91
2022-09-07T23:56:52.223Z,15.90
2022-09-07T23:59:58.090Z,15.89
